sensor_id;sensor_type;location;lat;lon;timestamp;P1;durP1;ratioP1;P2;durP2;ratioP2
34144;SDS011;20422;53.014;8.886;2022-09-09T00:04:27;41.92;;;31.23;;
34144;SDS011;20422;53.014;8.886;2022-09-09T00:06:55;43.60;;;30.98;;
34144;SDS011;20422;53.014;8.886;2022-09-09T00:09:26;44.10;;;30.17;;
34144;SDS011;20422;53.014;8.886;2022-09-09T00:12:12;39.70;;;28.48;;
34144;SDS011;20422;53.014;8.886;2022-09-09T00:14:56;43.35;;;30.25;;
34144;SDS011;20422;53.014;8.886;2022-09-09T00:22:56;41.50;;;29.95;;
34144;SDS011;20422;53.014;8.886;2022-09-09T00:25:46;43.95;;;31.13;;
34144;SDS011;20422;53.014;8.886;2022-09-09T00:28:20;49.58;;;32.85;;
34144;SDS011;20422;53.014;8.886;2022-09-09T00:30:50;46.55;;;29.85;;
34144;SDS011;20422;53.014;8.886;2022-09-09T00:33:17;45.75;;;30.70;;
34144;SDS011;20422;53.014;8.886;2022-09-09T00:35:48;45.28;;;29.17;;
34144;SDS011;20422;53.014;8.886;2022-09-09T00:38:36;40.42;;;30.05;;
34144;SDS011;20422;53.014;8.886;2022-09-09T00:41:09;39.63;;;28.30;;
34144;SDS011;20422;53.014;8.886;2022-09-09T00:43:42;42.58;;;29.25;;
34144;SDS011;20422;53.014;8.886;2022-09-09T00:46:18;41.13;;;30.27;;
34144;SDS011;20422;53.014;8.886;2022-09-09T00:49:20;37.97;;;29.00;;
34144;SDS011;20422;53.014;8.886;2022-09-09T00:51:55;41.13;;;29.63;;
34144;SDS011;20422;53.014;8.886;2022-09-09T00:54:34;39.03;;;28.67;;
34144;SDS011;20422;53.014;8.886;2022-09-09T01:00:16;39.13;;;27.58;;
34144;SDS011;20422;53.014;8.886;2022-09-09T01:05:55;35.90;;;26.83;;
34144;SDS011;20422;53.014;8.886;2022-09-09T01:16:56;34.17;;;23.77;;
34144;SDS011;20422;53.014;8.886;2022-09-09T01:19:27;29.40;;;23.42;;
34144;SDS011;20422;53.014;8.886;2022-09-09T01:25:02;32.38;;;23.05;;
34144;SDS011;20422;53.014;8.886;2022-09-09T01:27:35;28.75;;;23.40;;
34144;SDS011;20422;53.014;8.886;2022-09-09T01:30:04;32.65;;;23.13;;
34144;SDS011;20422;53.014;8.886;2022-09-09T01:32:38;30.85;;;21.85;;
34144;SDS011;20422;53.014;8.886;2022-09-09T01:35:22;30.77;;;21.70;;
34144;SDS011;20422;53.014;8.886;2022-09-09T01:37:52;29.25;;;22.00;;
34144;SDS011;20422;53.014;8.886;2022-09-09T01:40:17;28.65;;;21.00;;
34144;SDS011;20422;53.014;8.886;2022-09-09T01:42:42;26.85;;;20.67;;
34144;SDS011;20422;53.014;8.886;2022-09-09T01:45:08;30.48;;;20.73;;
34144;SDS011;20422;53.014;8.886;2022-09-09T01:47:34;27.60;;;19.98;;
34144;SDS011;20422;53.014;8.886;2022-09-09T01:50:00;34.85;;;21.70;;
34144;SDS011;20422;53.014;8.886;2022-09-09T01:52:26;25.55;;;19.20;;
34144;SDS011;20422;53.014;8.886;2022-09-09T01:54:52;25.60;;;19.13;;
34144;SDS011;20422;53.014;8.886;2022-09-09T01:57:19;27.90;;;18.75;;
34144;SDS011;20422;53.014;8.886;2022-09-09T02:08:11;26.08;;;17.48;;
34144;SDS011;20422;53.014;8.886;2022-09-09T02:10:56;25.92;;;19.67;;
34144;SDS011;20422;53.014;8.886;2022-09-09T02:13:28;25.85;;;18.92;;
34144;SDS011;20422;53.014;8.886;2022-09-09T02:18:39;23.42;;;18.95;;
34144;SDS011;20422;53.014;8.886;2022-09-09T02:21:24;22.73;;;18.38;;
34144;SDS011;20422;53.014;8.886;2022-09-09T02:23:53;27.05;;;20.42;;
34144;SDS011;20422;53.014;8.886;2022-09-09T02:26:21;22.65;;;17.80;;
34144;SDS011;20422;53.014;8.886;2022-09-09T02:28:48;29.95;;;20.13;;
34144;SDS011;20422;53.014;8.886;2022-09-09T02:31:16;25.73;;;20.45;;
34144;SDS011;20422;53.014;8.886;2022-09-09T02:33:47;30.15;;;20.75;;
34144;SDS011;20422;53.014;8.886;2022-09-09T02:36:18;27.23;;;19.75;;
34144;SDS011;20422;53.014;8.886;2022-09-09T02:38:46;31.17;;;19.77;;
34144;SDS011;20422;53.014;8.886;2022-09-09T02:43:43;24.83;;;19.52;;
34144;SDS011;20422;53.014;8.886;2022-09-09T02:48:48;31.25;;;20.33;;
34144;SDS011;20422;53.014;8.886;2022-09-09T02:51:35;25.20;;;20.65;;
34144;SDS011;20422;53.014;8.886;2022-09-09T02:56:51;33.45;;;19.67;;
34144;SDS011;20422;53.014;8.886;2022-09-09T02:59:21;28.42;;;18.45;;
34144;SDS011;20422;53.014;8.886;2022-09-09T03:01:49;30.15;;;18.33;;
34144;SDS011;20422;53.014;8.886;2022-09-09T03:04:15;21.48;;;17.80;;
34144;SDS011;20422;53.014;8.886;2022-09-09T03:06:40;23.40;;;16.67;;
34144;SDS011;20422;53.014;8.886;2022-09-09T03:09:05;25.80;;;17.85;;
34144;SDS011;20422;53.014;8.886;2022-09-09T03:11:32;24.67;;;17.13;;
34144;SDS011;20422;53.014;8.886;2022-09-09T03:13:58;23.80;;;18.55;;
34144;SDS011;20422;53.014;8.886;2022-09-09T03:16:23;25.77;;;16.77;;
34144;SDS011;20422;53.014;8.886;2022-09-09T03:18:50;20.55;;;16.67;;
34144;SDS011;20422;53.014;8.886;2022-09-09T03:21:15;20.80;;;16.33;;
34144;SDS011;20422;53.014;8.886;2022-09-09T03:23:41;26.05;;;16.98;;
34144;SDS011;20422;53.014;8.886;2022-09-09T03:26:06;27.02;;;15.90;;
34144;SDS011;20422;53.014;8.886;2022-09-09T03:28:32;23.80;;;16.02;;
34144;SDS011;20422;53.014;8.886;2022-09-09T03:31:01;23.55;;;15.52;;
34144;SDS011;20422;53.014;8.886;2022-09-09T03:33:28;19.02;;;14.80;;
34144;SDS011;20422;53.014;8.886;2022-09-09T03:35:54;18.00;;;13.88;;
34144;SDS011;20422;53.014;8.886;2022-09-09T03:38:21;21.48;;;14.23;;
34144;SDS011;20422;53.014;8.886;2022-09-09T03:40:51;19.80;;;14.30;;
34144;SDS011;20422;53.014;8.886;2022-09-09T03:43:20;20.45;;;13.52;;
34144;SDS011;20422;53.014;8.886;2022-09-09T03:45:50;17.05;;;12.35;;
34144;SDS011;20422;53.014;8.886;2022-09-09T03:48:16;19.25;;;12.85;;
34144;SDS011;20422;53.014;8.886;2022-09-09T03:50:46;18.65;;;11.10;;
34144;SDS011;20422;53.014;8.886;2022-09-09T03:55:38;15.20;;;11.18;;
34144;SDS011;20422;53.014;8.886;2022-09-09T03:58:03;15.82;;;10.85;;
34144;SDS011;20422;53.014;8.886;2022-09-09T04:00:29;16.40;;;9.85;;
34144;SDS011;20422;53.014;8.886;2022-09-09T04:02:55;11.88;;;9.95;;
34144;SDS011;20422;53.014;8.886;2022-09-09T04:05:21;14.15;;;9.45;;
34144;SDS011;20422;53.014;8.886;2022-09-09T04:07:47;14.27;;;10.07;;
34144;SDS011;20422;53.014;8.886;2022-09-09T04:10:12;12.68;;;9.07;;
34144;SDS011;20422;53.014;8.886;2022-09-09T04:12:38;10.95;;;9.18;;
34144;SDS011;20422;53.014;8.886;2022-09-09T04:15:03;23.40;;;9.02;;
34144;SDS011;20422;53.014;8.886;2022-09-09T04:17:29;10.15;;;8.82;;
34144;SDS011;20422;53.014;8.886;2022-09-09T04:19:54;14.80;;;9.25;;
34144;SDS011;20422;53.014;8.886;2022-09-09T04:22:20;10.68;;;8.15;;
34144;SDS011;20422;53.014;8.886;2022-09-09T04:24:46;13.25;;;8.23;;
34144;SDS011;20422;53.014;8.886;2022-09-09T04:27:12;15.30;;;8.00;;
34144;SDS011;20422;53.014;8.886;2022-09-09T04:29:37;12.07;;;7.85;;
34144;SDS011;20422;53.014;8.886;2022-09-09T04:32:03;19.27;;;8.45;;
34144;SDS011;20422;53.014;8.886;2022-09-09T04:34:28;20.20;;;7.57;;
34144;SDS011;20422;53.014;8.886;2022-09-09T04:36:54;13.68;;;7.75;;
34144;SDS011;20422;53.014;8.886;2022-09-09T04:39:20;15.95;;;6.78;;
34144;SDS011;20422;53.014;8.886;2022-09-09T04:41:45;13.60;;;8.27;;
34144;SDS011;20422;53.014;8.886;2022-09-09T04:44:10;10.30;;;7.32;;
34144;SDS011;20422;53.014;8.886;2022-09-09T04:46:36;12.48;;;5.93;;
34144;SDS011;20422;53.014;8.886;2022-09-09T04:49:01;16.67;;;7.18;;
34144;SDS011;20422;53.014;8.886;2022-09-09T04:51:26;13.75;;;6.30;;
34144;SDS011;20422;53.014;8.886;2022-09-09T04:53:53;10.95;;;6.65;;
34144;SDS011;20422;53.014;8.886;2022-09-09T04:56:18;9.38;;;6.70;;
34144;SDS011;20422;53.014;8.886;2022-09-09T04:58:44;11.80;;;6.70;;
34144;SDS011;20422;53.014;8.886;2022-09-09T05:03:37;11.30;;;6.22;;
34144;SDS011;20422;53.014;8.886;2022-09-09T05:06:09;11.18;;;6.07;;
34144;SDS011;20422;53.014;8.886;2022-09-09T05:08:36;13.73;;;6.32;;
34144;SDS011;20422;53.014;8.886;2022-09-09T05:11:03;10.93;;;5.82;;
34144;SDS011;20422;53.014;8.886;2022-09-09T05:13:29;12.88;;;5.20;;
34144;SDS011;20422;53.014;8.886;2022-09-09T05:15:57;13.13;;;6.18;;
34144;SDS011;20422;53.014;8.886;2022-09-09T05:18:22;7.80;;;5.50;;
34144;SDS011;20422;53.014;8.886;2022-09-09T05:20:48;8.80;;;5.22;;
34144;SDS011;20422;53.014;8.886;2022-09-09T05:23:15;11.38;;;5.43;;
34144;SDS011;20422;53.014;8.886;2022-09-09T05:25:41;9.70;;;6.57;;
34144;SDS011;20422;53.014;8.886;2022-09-09T05:28:07;13.05;;;5.47;;
34144;SDS011;20422;53.014;8.886;2022-09-09T05:30:32;11.82;;;5.45;;
34144;SDS011;20422;53.014;8.886;2022-09-09T05:32:58;13.73;;;5.55;;
34144;SDS011;20422;53.014;8.886;2022-09-09T05:35:24;8.23;;;5.18;;
34144;SDS011;20422;53.014;8.886;2022-09-09T05:37:49;12.45;;;6.30;;
34144;SDS011;20422;53.014;8.886;2022-09-09T05:40:14;9.77;;;5.35;;
34144;SDS011;20422;53.014;8.886;2022-09-09T05:42:40;8.57;;;5.88;;
34144;SDS011;20422;53.014;8.886;2022-09-09T05:45:06;11.85;;;6.03;;
34144;SDS011;20422;53.014;8.886;2022-09-09T05:47:33;12.00;;;5.55;;
34144;SDS011;20422;53.014;8.886;2022-09-09T05:49:58;10.55;;;5.60;;
34144;SDS011;20422;53.014;8.886;2022-09-09T05:52:24;10.40;;;5.15;;
34144;SDS011;20422;53.014;8.886;2022-09-09T05:54:51;8.60;;;5.18;;
34144;SDS011;20422;53.014;8.886;2022-09-09T05:57:16;8.20;;;5.38;;
34144;SDS011;20422;53.014;8.886;2022-09-09T05:59:42;10.38;;;5.80;;
34144;SDS011;20422;53.014;8.886;2022-09-09T06:02:08;11.98;;;6.57;;
34144;SDS011;20422;53.014;8.886;2022-09-09T06:04:34;10.15;;;5.70;;
34144;SDS011;20422;53.014;8.886;2022-09-09T06:06:59;10.52;;;5.20;;
34144;SDS011;20422;53.014;8.886;2022-09-09T06:09:25;7.78;;;5.03;;
34144;SDS011;20422;53.014;8.886;2022-09-09T06:11:50;10.00;;;5.22;;
34144;SDS011;20422;53.014;8.886;2022-09-09T06:14:15;8.93;;;5.05;;
34144;SDS011;20422;53.014;8.886;2022-09-09T06:16:42;6.95;;;4.07;;
34144;SDS011;20422;53.014;8.886;2022-09-09T06:19:09;6.07;;;3.92;;
34144;SDS011;20422;53.014;8.886;2022-09-09T06:21:35;5.03;;;3.28;;
34144;SDS011;20422;53.014;8.886;2022-09-09T06:24:05;5.72;;;3.50;;
34144;SDS011;20422;53.014;8.886;2022-09-09T06:26:32;6.95;;;3.28;;
34144;SDS011;20422;53.014;8.886;2022-09-09T06:29:01;6.35;;;3.35;;
34144;SDS011;20422;53.014;8.886;2022-09-09T06:31:29;4.70;;;3.28;;
34144;SDS011;20422;53.014;8.886;2022-09-09T06:33:58;5.22;;;2.17;;
34144;SDS011;20422;53.014;8.886;2022-09-09T06:36:30;7.75;;;3.17;;
34144;SDS011;20422;53.014;8.886;2022-09-09T06:38:59;5.95;;;2.65;;
34144;SDS011;20422;53.014;8.886;2022-09-09T06:41:27;4.50;;;2.38;;
34144;SDS011;20422;53.014;8.886;2022-09-09T06:43:55;6.00;;;2.78;;
34144;SDS011;20422;53.014;8.886;2022-09-09T06:46:22;6.55;;;2.95;;
34144;SDS011;20422;53.014;8.886;2022-09-09T06:48:55;4.30;;;2.60;;
34144;SDS011;20422;53.014;8.886;2022-09-09T06:51:34;8.93;;;3.40;;
34144;SDS011;20422;53.014;8.886;2022-09-09T06:54:02;11.73;;;3.13;;
34144;SDS011;20422;53.014;8.886;2022-09-09T06:56:35;6.32;;;2.78;;
34144;SDS011;20422;53.014;8.886;2022-09-09T06:59:09;6.53;;;2.75;;
34144;SDS011;20422;53.014;8.886;2022-09-09T07:01:36;4.32;;;3.00;;
34144;SDS011;20422;53.014;8.886;2022-09-09T07:04:05;7.90;;;2.90;;
34144;SDS011;20422;53.014;8.886;2022-09-09T07:06:35;4.18;;;2.20;;
34144;SDS011;20422;53.014;8.886;2022-09-09T07:09:04;9.88;;;2.72;;
34144;SDS011;20422;53.014;8.886;2022-09-09T07:11:33;5.07;;;2.28;;
34144;SDS011;20422;53.014;8.886;2022-09-09T07:14:03;5.43;;;2.60;;
34144;SDS011;20422;53.014;8.886;2022-09-09T07:16:30;13.88;;;3.00;;
34144;SDS011;20422;53.014;8.886;2022-09-09T07:18:58;8.98;;;2.40;;
34144;SDS011;20422;53.014;8.886;2022-09-09T07:21:26;3.05;;;2.13;;
34144;SDS011;20422;53.014;8.886;2022-09-09T07:23:54;10.02;;;2.58;;
34144;SDS011;20422;53.014;8.886;2022-09-09T07:26:22;7.13;;;2.42;;
34144;SDS011;20422;53.014;8.886;2022-09-09T07:28:51;7.38;;;2.20;;
34144;SDS011;20422;53.014;8.886;2022-09-09T07:31:19;3.00;;;1.95;;
34144;SDS011;20422;53.014;8.886;2022-09-09T07:33:47;4.18;;;2.15;;
34144;SDS011;20422;53.014;8.886;2022-09-09T07:36:16;4.60;;;2.13;;
34144;SDS011;20422;53.014;8.886;2022-09-09T07:38:45;6.85;;;1.98;;
34144;SDS011;20422;53.014;8.886;2022-09-09T07:41:41;4.07;;;2.13;;
34144;SDS011;20422;53.014;8.886;2022-09-09T07:44:11;4.70;;;2.30;;
34144;SDS011;20422;53.014;8.886;2022-09-09T07:46:40;5.47;;;2.25;;
34144;SDS011;20422;53.014;8.886;2022-09-09T07:49:07;3.25;;;2.00;;
34144;SDS011;20422;53.014;8.886;2022-09-09T07:51:35;5.75;;;2.30;;
34144;SDS011;20422;53.014;8.886;2022-09-09T07:54:03;3.65;;;2.13;;
34144;SDS011;20422;53.014;8.886;2022-09-09T07:56:30;5.53;;;2.25;;
34144;SDS011;20422;53.014;8.886;2022-09-09T07:58:56;5.78;;;2.38;;
34144;SDS011;20422;53.014;8.886;2022-09-09T08:01:31;4.82;;;1.90;;
34144;SDS011;20422;53.014;8.886;2022-09-09T08:03:59;3.83;;;1.85;;
34144;SDS011;20422;53.014;8.886;2022-09-09T08:06:34;5.25;;;1.90;;
34144;SDS011;20422;53.014;8.886;2022-09-09T08:09:02;6.00;;;1.90;;
34144;SDS011;20422;53.014;8.886;2022-09-09T08:11:29;6.40;;;2.35;;
34144;SDS011;20422;53.014;8.886;2022-09-09T08:13:55;5.15;;;2.60;;
34144;SDS011;20422;53.014;8.886;2022-09-09T08:16:22;6.00;;;2.00;;
34144;SDS011;20422;53.014;8.886;2022-09-09T08:18:49;7.53;;;2.30;;
34144;SDS011;20422;53.014;8.886;2022-09-09T08:21:17;7.60;;;1.77;;
34144;SDS011;20422;53.014;8.886;2022-09-09T08:23:49;6.90;;;1.65;;
34144;SDS011;20422;53.014;8.886;2022-09-09T08:26:18;6.70;;;2.05;;
34144;SDS011;20422;53.014;8.886;2022-09-09T08:28:51;3.65;;;1.95;;
34144;SDS011;20422;53.014;8.886;2022-09-09T08:31:19;3.72;;;1.73;;
34144;SDS011;20422;53.014;8.886;2022-09-09T08:33:46;5.38;;;1.95;;
34144;SDS011;20422;53.014;8.886;2022-09-09T08:36:19;5.95;;;2.00;;
34144;SDS011;20422;53.014;8.886;2022-09-09T08:38:56;5.15;;;1.42;;
34144;SDS011;20422;53.014;8.886;2022-09-09T08:50:27;7.80;;;2.15;;
34144;SDS011;20422;53.014;8.886;2022-09-09T08:55:51;6.38;;;1.42;;
34144;SDS011;20422;53.014;8.886;2022-09-09T08:58:23;6.13;;;1.83;;
34144;SDS011;20422;53.014;8.886;2022-09-09T09:01:02;4.22;;;1.80;;
34144;SDS011;20422;53.014;8.886;2022-09-09T09:06:55;6.25;;;1.70;;
34144;SDS011;20422;53.014;8.886;2022-09-09T09:12:40;6.07;;;1.73;;
34144;SDS011;20422;53.014;8.886;2022-09-09T09:15:31;6.82;;;1.60;;
34144;SDS011;20422;53.014;8.886;2022-09-09T09:18:05;5.60;;;1.65;;
34144;SDS011;20422;53.014;8.886;2022-09-09T09:25:46;3.30;;;1.52;;
34144;SDS011;20422;53.014;8.886;2022-09-09T09:28:17;7.40;;;2.10;;
34144;SDS011;20422;53.014;8.886;2022-09-09T09:31:07;8.40;;;2.13;;
34144;SDS011;20422;53.014;8.886;2022-09-09T09:33:51;4.43;;;1.75;;
34144;SDS011;20422;53.014;8.886;2022-09-09T09:36:20;4.47;;;1.77;;
34144;SDS011;20422;53.014;8.886;2022-09-09T09:38:56;6.60;;;3.25;;
34144;SDS011;20422;53.014;8.886;2022-09-09T09:41:43;5.20;;;2.20;;
34144;SDS011;20422;53.014;8.886;2022-09-09T09:47:16;2.78;;;1.42;;
34144;SDS011;20422;53.014;8.886;2022-09-09T09:49:54;6.68;;;2.17;;
34144;SDS011;20422;53.014;8.886;2022-09-09T09:52:25;6.15;;;2.30;;
34144;SDS011;20422;53.014;8.886;2022-09-09T09:57:31;8.27;;;2.30;;
34144;SDS011;20422;53.014;8.886;2022-09-09T10:00:04;7.65;;;1.73;;
34144;SDS011;20422;53.014;8.886;2022-09-09T10:02:44;10.45;;;2.05;;
34144;SDS011;20422;53.014;8.886;2022-09-09T10:05:23;6.65;;;2.33;;
34144;SDS011;20422;53.014;8.886;2022-09-09T10:08:14;6.00;;;2.22;;
34144;SDS011;20422;53.014;8.886;2022-09-09T10:14:19;3.25;;;1.98;;
34144;SDS011;20422;53.014;8.886;2022-09-09T10:19:53;6.95;;;2.53;;
34144;SDS011;20422;53.014;8.886;2022-09-09T10:22:50;6.72;;;2.50;;
34144;SDS011;20422;53.014;8.886;2022-09-09T10:25:26;3.47;;;1.70;;
34144;SDS011;20422;53.014;8.886;2022-09-09T10:42:54;5.45;;;2.00;;
34144;SDS011;20422;53.014;8.886;2022-09-09T10:45:34;7.80;;;2.25;;
34144;SDS011;20422;53.014;8.886;2022-09-09T10:49:01;10.90;;;2.53;;
34144;SDS011;20422;53.014;8.886;2022-09-09T10:51:33;5.75;;;1.73;;
34144;SDS011;20422;53.014;8.886;2022-09-09T10:57:40;6.13;;;2.15;;
34144;SDS011;20422;53.014;8.886;2022-09-09T11:00:18;5.65;;;1.73;;
34144;SDS011;20422;53.014;8.886;2022-09-09T11:02:48;5.90;;;1.60;;
34144;SDS011;20422;53.014;8.886;2022-09-09T11:05:28;5.28;;;1.80;;
34144;SDS011;20422;53.014;8.886;2022-09-09T11:08:05;6.18;;;2.85;;
34144;SDS011;20422;53.014;8.886;2022-09-09T11:14:12;6.97;;;1.83;;
34144;SDS011;20422;53.014;8.886;2022-09-09T11:19:41;7.63;;;1.85;;
34144;SDS011;20422;53.014;8.886;2022-09-09T11:28:19;9.70;;;2.05;;
34144;SDS011;20422;53.014;8.886;2022-09-09T11:34:23;5.10;;;1.75;;
34144;SDS011;20422;53.014;8.886;2022-09-09T11:37:27;10.02;;;2.53;;
34144;SDS011;20422;53.014;8.886;2022-09-09T11:40:22;6.65;;;2.15;;
34144;SDS011;20422;53.014;8.886;2022-09-09T11:42:50;4.43;;;1.80;;
34144;SDS011;20422;53.014;8.886;2022-09-09T11:45:28;8.05;;;2.40;;
34144;SDS011;20422;53.014;8.886;2022-09-09T11:47:56;13.48;;;2.65;;
34144;SDS011;20422;53.014;8.886;2022-09-09T11:50:30;12.40;;;2.83;;
34144;SDS011;20422;53.014;8.886;2022-09-09T11:55:41;16.75;;;3.60;;
34144;SDS011;20422;53.014;8.886;2022-09-09T12:00:50;10.93;;;3.42;;
34144;SDS011;20422;53.014;8.886;2022-09-09T12:17:48;12.60;;;4.82;;
34144;SDS011;20422;53.014;8.886;2022-09-09T12:29:09;13.48;;;4.00;;
34144;SDS011;20422;53.014;8.886;2022-09-09T12:32:09;7.55;;;3.88;;
34144;SDS011;20422;53.014;8.886;2022-09-09T12:37:56;8.80;;;3.53;;
34144;SDS011;20422;53.014;8.886;2022-09-09T12:40:30;5.78;;;3.15;;
34144;SDS011;20422;53.014;8.886;2022-09-09T12:43:02;10.32;;;3.03;;
34144;SDS011;20422;53.014;8.886;2022-09-09T12:45:43;9.02;;;3.00;;
34144;SDS011;20422;53.014;8.886;2022-09-09T12:48:11;13.32;;;3.15;;
34144;SDS011;20422;53.014;8.886;2022-09-09T12:50:50;7.75;;;2.45;;
34144;SDS011;20422;53.014;8.886;2022-09-09T12:56:05;9.05;;;3.33;;
34144;SDS011;20422;53.014;8.886;2022-09-09T12:58:35;8.23;;;2.67;;
34144;SDS011;20422;53.014;8.886;2022-09-09T13:01:04;7.55;;;3.70;;
34144;SDS011;20422;53.014;8.886;2022-09-09T13:03:32;8.23;;;3.63;;
34144;SDS011;20422;53.014;8.886;2022-09-09T13:06:18;10.00;;;3.63;;
34144;SDS011;20422;53.014;8.886;2022-09-09T13:09:01;11.95;;;3.35;;
34144;SDS011;20422;53.014;8.886;2022-09-09T13:11:41;14.35;;;3.50;;
34144;SDS011;20422;53.014;8.886;2022-09-09T13:14:35;6.22;;;3.17;;
34144;SDS011;20422;53.014;8.886;2022-09-09T13:17:06;10.48;;;3.35;;
34144;SDS011;20422;53.014;8.886;2022-09-09T13:19:43;8.50;;;3.38;;
34144;SDS011;20422;53.014;8.886;2022-09-09T13:27:38;7.68;;;2.25;;
34144;SDS011;20422;53.014;8.886;2022-09-09T13:30:23;8.43;;;2.20;;
34144;SDS011;20422;53.014;8.886;2022-09-09T13:33:00;6.13;;;2.22;;
34144;SDS011;20422;53.014;8.886;2022-09-09T13:35:27;6.43;;;1.98;;
34144;SDS011;20422;53.014;8.886;2022-09-09T13:37:53;8.50;;;1.90;;
34144;SDS011;20422;53.014;8.886;2022-09-09T13:40:22;5.28;;;2.00;;
34144;SDS011;20422;53.014;8.886;2022-09-09T13:45:18;3.40;;;1.80;;
34144;SDS011;20422;53.014;8.886;2022-09-09T13:47:48;4.22;;;1.50;;
34144;SDS011;20422;53.014;8.886;2022-09-09T13:50:29;5.25;;;1.67;;
34144;SDS011;20422;53.014;8.886;2022-09-09T13:52:56;6.65;;;2.00;;
34144;SDS011;20422;53.014;8.886;2022-09-09T13:55:29;6.05;;;1.92;;
34144;SDS011;20422;53.014;8.886;2022-09-09T13:57:59;4.53;;;1.85;;
34144;SDS011;20422;53.014;8.886;2022-09-09T14:00:30;8.48;;;2.00;;
34144;SDS011;20422;53.014;8.886;2022-09-09T14:02:59;6.78;;;2.50;;
34144;SDS011;20422;53.014;8.886;2022-09-09T14:05:31;5.35;;;2.38;;
34144;SDS011;20422;53.014;8.886;2022-09-09T14:07:59;10.65;;;3.17;;
34144;SDS011;20422;53.014;8.886;2022-09-09T14:10:29;8.48;;;2.63;;
34144;SDS011;20422;53.014;8.886;2022-09-09T14:12:56;7.07;;;2.95;;
34144;SDS011;20422;53.014;8.886;2022-09-09T14:15:22;7.28;;;3.53;;
34144;SDS011;20422;53.014;8.886;2022-09-09T14:17:49;7.85;;;3.10;;
34144;SDS011;20422;53.014;8.886;2022-09-09T14:20:16;7.72;;;3.00;;
34144;SDS011;20422;53.014;8.886;2022-09-09T14:22:43;5.70;;;3.22;;
34144;SDS011;20422;53.014;8.886;2022-09-09T14:25:10;10.25;;;3.65;;
34144;SDS011;20422;53.014;8.886;2022-09-09T14:27:40;9.57;;;3.15;;
34144;SDS011;20422;53.014;8.886;2022-09-09T14:30:06;8.15;;;3.60;;
34144;SDS011;20422;53.014;8.886;2022-09-09T14:32:33;12.70;;;3.20;;
34144;SDS011;20422;53.014;8.886;2022-09-09T14:34:58;8.20;;;3.72;;
34144;SDS011;20422;53.014;8.886;2022-09-09T14:37:26;11.88;;;3.45;;
34144;SDS011;20422;53.014;8.886;2022-09-09T14:39:52;6.68;;;3.70;;
34144;SDS011;20422;53.014;8.886;2022-09-09T14:42:18;7.70;;;3.55;;
34144;SDS011;20422;53.014;8.886;2022-09-09T14:44:44;11.23;;;4.38;;
34144;SDS011;20422;53.014;8.886;2022-09-09T14:47:09;7.68;;;3.40;;
34144;SDS011;20422;53.014;8.886;2022-09-09T14:49:35;11.07;;;3.75;;
34144;SDS011;20422;53.014;8.886;2022-09-09T14:52:04;7.57;;;3.40;;
34144;SDS011;20422;53.014;8.886;2022-09-09T14:54:30;7.47;;;3.30;;
34144;SDS011;20422;53.014;8.886;2022-09-09T14:56:58;15.90;;;3.70;;
34144;SDS011;20422;53.014;8.886;2022-09-09T14:59:23;12.25;;;4.15;;
34144;SDS011;20422;53.014;8.886;2022-09-09T15:01:49;12.07;;;3.80;;
34144;SDS011;20422;53.014;8.886;2022-09-09T15:04:15;14.98;;;4.32;;
34144;SDS011;20422;53.014;8.886;2022-09-09T15:06:41;8.20;;;3.97;;
34144;SDS011;20422;53.014;8.886;2022-09-09T15:09:09;8.00;;;3.22;;
34144;SDS011;20422;53.014;8.886;2022-09-09T15:11:35;17.10;;;4.40;;
34144;SDS011;20422;53.014;8.886;2022-09-09T15:14:05;9.20;;;3.83;;
34144;SDS011;20422;53.014;8.886;2022-09-09T15:16:31;8.40;;;3.85;;
34144;SDS011;20422;53.014;8.886;2022-09-09T15:18:58;11.18;;;4.15;;
34144;SDS011;20422;53.014;8.886;2022-09-09T15:21:25;6.40;;;3.10;;
34144;SDS011;20422;53.014;8.886;2022-09-09T15:23:53;8.05;;;2.97;;
34144;SDS011;20422;53.014;8.886;2022-09-09T15:26:19;15.55;;;4.07;;
34144;SDS011;20422;53.014;8.886;2022-09-09T15:28:46;11.73;;;3.80;;
34144;SDS011;20422;53.014;8.886;2022-09-09T15:31:16;8.02;;;3.30;;
34144;SDS011;20422;53.014;8.886;2022-09-09T15:33:54;6.40;;;2.70;;
34144;SDS011;20422;53.014;8.886;2022-09-09T15:38:57;7.90;;;2.47;;
34144;SDS011;20422;53.014;8.886;2022-09-09T15:41:23;5.07;;;2.67;;
34144;SDS011;20422;53.014;8.886;2022-09-09T15:43:51;4.22;;;2.55;;
34144;SDS011;20422;53.014;8.886;2022-09-09T15:49:13;9.23;;;2.65;;
34144;SDS011;20422;53.014;8.886;2022-09-09T15:51:41;6.45;;;2.75;;
34144;SDS011;20422;53.014;8.886;2022-09-09T15:54:09;6.13;;;2.28;;
34144;SDS011;20422;53.014;8.886;2022-09-09T15:56:41;7.10;;;2.65;;
34144;SDS011;20422;53.014;8.886;2022-09-09T15:59:08;8.93;;;2.55;;
34144;SDS011;20422;53.014;8.886;2022-09-09T16:01:35;7.70;;;3.08;;
34144;SDS011;20422;53.014;8.886;2022-09-09T16:04:01;7.65;;;2.47;;
34144;SDS011;20422;53.014;8.886;2022-09-09T16:06:29;8.60;;;3.67;;
34144;SDS011;20422;53.014;8.886;2022-09-09T16:08:56;7.85;;;3.00;;
34144;SDS011;20422;53.014;8.886;2022-09-09T16:11:31;10.57;;;3.65;;
34144;SDS011;20422;53.014;8.886;2022-09-09T16:14:03;9.30;;;3.42;;
34144;SDS011;20422;53.014;8.886;2022-09-09T16:16:31;6.75;;;2.97;;
34144;SDS011;20422;53.014;8.886;2022-09-09T16:19:00;11.50;;;3.50;;
34144;SDS011;20422;53.014;8.886;2022-09-09T16:21:31;10.40;;;3.47;;
34144;SDS011;20422;53.014;8.886;2022-09-09T16:24:04;8.45;;;3.78;;
34144;SDS011;20422;53.014;8.886;2022-09-09T16:26:32;10.30;;;3.22;;
34144;SDS011;20422;53.014;8.886;2022-09-09T16:29:00;7.83;;;2.80;;
34144;SDS011;20422;53.014;8.886;2022-09-09T16:31:28;5.95;;;2.67;;
34144;SDS011;20422;53.014;8.886;2022-09-09T16:33:57;5.93;;;2.70;;
34144;SDS011;20422;53.014;8.886;2022-09-09T16:36:24;6.35;;;2.33;;
34144;SDS011;20422;53.014;8.886;2022-09-09T16:38:58;5.38;;;2.63;;
34144;SDS011;20422;53.014;8.886;2022-09-09T16:41:26;3.28;;;2.28;;
34144;SDS011;20422;53.014;8.886;2022-09-09T16:43:54;6.05;;;2.50;;
34144;SDS011;20422;53.014;8.886;2022-09-09T16:46:26;5.75;;;2.55;;
34144;SDS011;20422;53.014;8.886;2022-09-09T16:48:55;4.27;;;1.90;;
34144;SDS011;20422;53.014;8.886;2022-09-09T16:51:27;7.93;;;2.63;;
34144;SDS011;20422;53.014;8.886;2022-09-09T16:53:58;6.20;;;2.40;;
34144;SDS011;20422;53.014;8.886;2022-09-09T16:56:27;6.37;;;2.47;;
34144;SDS011;20422;53.014;8.886;2022-09-09T16:58:55;4.72;;;2.25;;
34144;SDS011;20422;53.014;8.886;2022-09-09T17:01:28;3.90;;;2.35;;
34144;SDS011;20422;53.014;8.886;2022-09-09T17:03:59;9.30;;;2.22;;
34144;SDS011;20422;53.014;8.886;2022-09-09T17:06:28;5.05;;;2.30;;
34144;SDS011;20422;53.014;8.886;2022-09-09T17:08:56;3.90;;;2.03;;
34144;SDS011;20422;53.014;8.886;2022-09-09T17:11:24;8.10;;;3.20;;
34144;SDS011;20422;53.014;8.886;2022-09-09T17:13:50;22.63;;;5.03;;
34144;SDS011;20422;53.014;8.886;2022-09-09T17:16:17;22.17;;;5.80;;
34144;SDS011;20422;53.014;8.886;2022-09-09T17:18:46;12.27;;;4.20;;
34144;SDS011;20422;53.014;8.886;2022-09-09T17:21:13;10.15;;;3.10;;
34144;SDS011;20422;53.014;8.886;2022-09-09T17:23:42;7.93;;;3.20;;
34144;SDS011;20422;53.014;8.886;2022-09-09T17:26:09;12.23;;;3.28;;
34144;SDS011;20422;53.014;8.886;2022-09-09T17:28:37;9.32;;;2.95;;
34144;SDS011;20422;53.014;8.886;2022-09-09T17:31:04;9.05;;;3.40;;
34144;SDS011;20422;53.014;8.886;2022-09-09T17:33:35;4.80;;;3.13;;
34144;SDS011;20422;53.014;8.886;2022-09-09T17:36:08;10.35;;;3.33;;
34144;SDS011;20422;53.014;8.886;2022-09-09T17:38:46;12.88;;;3.40;;
34144;SDS011;20422;53.014;8.886;2022-09-09T17:43:48;6.53;;;2.95;;
34144;SDS011;20422;53.014;8.886;2022-09-09T17:46:18;8.27;;;3.17;;
34144;SDS011;20422;53.014;8.886;2022-09-09T17:48:46;9.20;;;3.75;;